Newington, Connecticut
Current Conditions -  °F | °C
As of 4:17 AM on Monday 24 Nov 2014 (Local Time) from KHFD Reporting Station
Light Rain Light Rain  
Wind Chill: 43°   Ceiling: 1000
Heat Index: 43°   Visibility: 2mi
Dew Point: 41°   Wind: 3mph
Humidity: 93%   Direction: NA
Pressure: 29.87"   Gusts: NA
Location:  41.7°N, 72.73°W
Report Text: KHFD 240917Z AUTO VRB03KT 2SM -RA BR OVC010 06/05 A2987 RMK AO2 P0003 T00610050
Loading
Personal Weather Stations






























Interactive Weather Map New forecast layout! Learn more

10-Day Weather Forecast

Advertisements
Track Severe Weather on mobile